Wallingford, Kentucky
Current Conditions -  °F | °C
As of 6:55 PM on Friday 24 Oct 2014 (Local Time) from KFGX Reporting Station
Clear Clear  
Wind Chill: 56°   Ceiling: Unl
Heat Index: 56°   Visibility: 10mi
Dew Point: 41°   Wind: 6mph
Humidity: 57%   Direction: 240°WSW
Pressure: 30.06"   Gusts: NA
Location:  38.4°N, 83.61°W
Report Text: KFGX 242255Z AUTO 24005KT 10SM CLR 13/05 A3006 RMK AO2 T01340051
Loading
Personal Weather Stations






























Interactive Weather Map
Tropical Storm Tracking
New forecast layout! Learn more

10-Day Weather Forecast

Advertisements
Track Severe Weather on mobile